sensor_id;sensor_type;location;lat;lon;timestamp;temperature;humidity
4411;DHT22;2218;51.408;7.208;2023-06-14T00:01:55;25.90;33.90
4411;DHT22;2218;51.408;7.208;2023-06-14T00:04:22;25.90;33.90
4411;DHT22;2218;51.408;7.208;2023-06-14T00:06:52;25.90;33.90
4411;DHT22;2218;51.408;7.208;2023-06-14T00:09:19;25.90;33.90
4411;DHT22;2218;51.408;7.208;2023-06-14T00:11:46;25.90;33.90
4411;DHT22;2218;51.408;7.208;2023-06-14T00:14:13;25.90;34.00
4411;DHT22;2218;51.408;7.208;2023-06-14T00:16:40;25.90;34.00
4411;DHT22;2218;51.408;7.208;2023-06-14T00:19:08;25.90;34.10
4411;DHT22;2218;51.408;7.208;2023-06-14T00:21:36;25.90;34.00
4411;DHT22;2218;51.408;7.208;2023-06-14T00:24:05;25.90;34.10
4411;DHT22;2218;51.408;7.208;2023-06-14T00:26:32;25.90;34.10
4411;DHT22;2218;51.408;7.208;2023-06-14T00:28:59;25.90;34.10
4411;DHT22;2218;51.408;7.208;2023-06-14T00:31:26;25.90;34.20
4411;DHT22;2218;51.408;7.208;2023-06-14T00:33:53;25.80;34.10
4411;DHT22;2218;51.408;7.208;2023-06-14T00:36:20;25.80;34.10
4411;DHT22;2218;51.408;7.208;2023-06-14T00:38:47;25.80;34.10
4411;DHT22;2218;51.408;7.208;2023-06-14T00:41:15;25.80;34.20
4411;DHT22;2218;51.408;7.208;2023-06-14T00:43:42;25.80;34.20
4411;DHT22;2218;51.408;7.208;2023-06-14T00:46:09;25.80;34.20
4411;DHT22;2218;51.408;7.208;2023-06-14T00:48:37;25.80;34.20
4411;DHT22;2218;51.408;7.208;2023-06-14T00:51:06;25.80;34.20
4411;DHT22;2218;51.408;7.208;2023-06-14T00:53:33;25.80;34.30
4411;DHT22;2218;51.408;7.208;2023-06-14T00:56:01;25.80;34.30
4411;DHT22;2218;51.408;7.208;2023-06-14T00:58:30;25.80;34.30
4411;DHT22;2218;51.408;7.208;2023-06-14T01:00:58;25.80;34.30
4411;DHT22;2218;51.408;7.208;2023-06-14T01:03:25;25.80;34.30
4411;DHT22;2218;51.408;7.208;2023-06-14T01:06:01;25.80;34.40
4411;DHT22;2218;51.408;7.208;2023-06-14T01:08:46;25.80;34.40
4411;DHT22;2218;51.408;7.208;2023-06-14T01:11:24;25.80;34.40
4411;DHT22;2218;51.408;7.208;2023-06-14T01:13:56;25.80;34.40
4411;DHT22;2218;51.408;7.208;2023-06-14T01:16:26;25.80;34.40
4411;DHT22;2218;51.408;7.208;2023-06-14T01:18:55;25.80;34.50
4411;DHT22;2218;51.408;7.208;2023-06-14T01:21:24;25.80;34.50
4411;DHT22;2218;51.408;7.208;2023-06-14T01:23:55;25.80;35.00
4411;DHT22;2218;51.408;7.208;2023-06-14T01:26:22;25.80;34.60
4411;DHT22;2218;51.408;7.208;2023-06-14T01:28:52;25.80;34.60
4411;DHT22;2218;51.408;7.208;2023-06-14T01:31:24;25.80;34.60
4411;DHT22;2218;51.408;7.208;2023-06-14T01:33:53;25.80;34.70
4411;DHT22;2218;51.408;7.208;2023-06-14T01:36:24;25.70;34.60
4411;DHT22;2218;51.408;7.208;2023-06-14T01:38:59;25.70;34.60
4411;DHT22;2218;51.408;7.208;2023-06-14T01:41:27;25.70;34.70
4411;DHT22;2218;51.408;7.208;2023-06-14T01:43:56;25.70;34.70
4411;DHT22;2218;51.408;7.208;2023-06-14T01:46:25;25.70;34.70
4411;DHT22;2218;51.408;7.208;2023-06-14T01:48:53;25.70;34.70
4411;DHT22;2218;51.408;7.208;2023-06-14T01:51:20;25.70;34.80
4411;DHT22;2218;51.408;7.208;2023-06-14T01:53:48;25.70;34.80
4411;DHT22;2218;51.408;7.208;2023-06-14T01:56:16;25.70;34.80
4411;DHT22;2218;51.408;7.208;2023-06-14T01:58:43;25.70;34.80
4411;DHT22;2218;51.408;7.208;2023-06-14T02:01:11;25.70;34.90
4411;DHT22;2218;51.408;7.208;2023-06-14T02:03:38;25.70;34.80
4411;DHT22;2218;51.408;7.208;2023-06-14T02:06:05;25.70;34.90
4411;DHT22;2218;51.408;7.208;2023-06-14T02:08:32;25.70;34.90
4411;DHT22;2218;51.408;7.208;2023-06-14T02:11:00;25.70;34.90
4411;DHT22;2218;51.408;7.208;2023-06-14T02:13:28;25.70;34.90
4411;DHT22;2218;51.408;7.208;2023-06-14T02:15:55;25.70;34.90
4411;DHT22;2218;51.408;7.208;2023-06-14T02:18:23;25.70;34.90
4411;DHT22;2218;51.408;7.208;2023-06-14T02:20:50;25.70;35.00
4411;DHT22;2218;51.408;7.208;2023-06-14T02:23:17;25.60;35.00
4411;DHT22;2218;51.408;7.208;2023-06-14T02:25:44;25.60;34.90
4411;DHT22;2218;51.408;7.208;2023-06-14T02:28:11;25.60;35.00
4411;DHT22;2218;51.408;7.208;2023-06-14T02:30:40;25.60;35.00
4411;DHT22;2218;51.408;7.208;2023-06-14T02:33:07;25.60;35.00
4411;DHT22;2218;51.408;7.208;2023-06-14T02:35:39;25.60;35.10
4411;DHT22;2218;51.408;7.208;2023-06-14T02:38:06;25.60;35.10
4411;DHT22;2218;51.408;7.208;2023-06-14T02:40:33;25.60;35.10
4411;DHT22;2218;51.408;7.208;2023-06-14T02:43:00;25.60;35.10
4411;DHT22;2218;51.408;7.208;2023-06-14T02:45:27;25.60;35.10
4411;DHT22;2218;51.408;7.208;2023-06-14T02:47:55;25.60;35.10
4411;DHT22;2218;51.408;7.208;2023-06-14T02:50:22;25.60;35.10
4411;DHT22;2218;51.408;7.208;2023-06-14T02:52:49;25.60;35.10
4411;DHT22;2218;51.408;7.208;2023-06-14T02:55:18;25.60;35.20
4411;DHT22;2218;51.408;7.208;2023-06-14T02:57:46;25.60;35.20
4411;DHT22;2218;51.408;7.208;2023-06-14T03:00:14;25.60;35.20
4411;DHT22;2218;51.408;7.208;2023-06-14T03:02:43;25.60;35.20
4411;DHT22;2218;51.408;7.208;2023-06-14T03:05:12;25.50;35.20
4411;DHT22;2218;51.408;7.208;2023-06-14T03:07:40;25.50;35.20
4411;DHT22;2218;51.408;7.208;2023-06-14T03:10:10;25.50;35.20
4411;DHT22;2218;51.408;7.208;2023-06-14T03:12:39;25.50;35.30
4411;DHT22;2218;51.408;7.208;2023-06-14T03:15:09;25.50;35.30
4411;DHT22;2218;51.408;7.208;2023-06-14T03:17:40;25.50;35.20
4411;DHT22;2218;51.408;7.208;2023-06-14T03:20:13;25.50;35.20
4411;DHT22;2218;51.408;7.208;2023-06-14T03:22:41;25.50;35.30
4411;DHT22;2218;51.408;7.208;2023-06-14T03:25:11;25.50;35.30
4411;DHT22;2218;51.408;7.208;2023-06-14T03:27:39;25.50;35.30
4411;DHT22;2218;51.408;7.208;2023-06-14T03:30:07;25.50;35.30
4411;DHT22;2218;51.408;7.208;2023-06-14T03:32:35;25.50;35.30
4411;DHT22;2218;51.408;7.208;2023-06-14T03:35:04;25.50;35.30
4411;DHT22;2218;51.408;7.208;2023-06-14T03:37:33;25.50;35.40
4411;DHT22;2218;51.408;7.208;2023-06-14T03:40:00;25.50;35.40
4411;DHT22;2218;51.408;7.208;2023-06-14T03:42:33;25.50;35.40
4411;DHT22;2218;51.408;7.208;2023-06-14T03:45:00;25.50;35.40
4411;DHT22;2218;51.408;7.208;2023-06-14T03:47:27;25.50;35.50
4411;DHT22;2218;51.408;7.208;2023-06-14T03:49:55;25.50;35.50
4411;DHT22;2218;51.408;7.208;2023-06-14T03:52:22;25.50;35.50
4411;DHT22;2218;51.408;7.208;2023-06-14T03:54:50;25.50;35.50
4411;DHT22;2218;51.408;7.208;2023-06-14T03:57:18;25.50;35.50
4411;DHT22;2218;51.408;7.208;2023-06-14T03:59:47;25.50;35.50
4411;DHT22;2218;51.408;7.208;2023-06-14T04:02:15;25.50;35.50
4411;DHT22;2218;51.408;7.208;2023-06-14T04:04:44;25.50;35.50
4411;DHT22;2218;51.408;7.208;2023-06-14T04:07:11;25.50;35.50
4411;DHT22;2218;51.408;7.208;2023-06-14T04:09:38;25.50;35.50
4411;DHT22;2218;51.408;7.208;2023-06-14T04:12:08;25.50;35.40
4411;DHT22;2218;51.408;7.208;2023-06-14T04:14:37;25.50;35.90
4411;DHT22;2218;51.408;7.208;2023-06-14T04:17:04;25.40;35.30
4411;DHT22;2218;51.408;7.208;2023-06-14T04:19:31;25.40;35.20
4411;DHT22;2218;51.408;7.208;2023-06-14T04:21:59;25.40;35.30
4411;DHT22;2218;51.408;7.208;2023-06-14T04:24:29;25.40;35.30
4411;DHT22;2218;51.408;7.208;2023-06-14T04:26:58;25.40;35.40
4411;DHT22;2218;51.408;7.208;2023-06-14T04:29:29;25.40;35.50
4411;DHT22;2218;51.408;7.208;2023-06-14T04:32:01;25.40;35.50
4411;DHT22;2218;51.408;7.208;2023-06-14T04:34:28;25.40;35.50
4411;DHT22;2218;51.408;7.208;2023-06-14T04:36:58;25.40;35.50
4411;DHT22;2218;51.408;7.208;2023-06-14T04:39:36;25.40;35.50
4411;DHT22;2218;51.408;7.208;2023-06-14T04:42:03;25.40;35.60
4411;DHT22;2218;51.408;7.208;2023-06-14T04:44:34;25.40;35.60
4411;DHT22;2218;51.408;7.208;2023-06-14T04:47:04;25.40;35.60
4411;DHT22;2218;51.408;7.208;2023-06-14T04:49:32;25.40;35.70
4411;DHT22;2218;51.408;7.208;2023-06-14T04:52:00;25.40;35.70
4411;DHT22;2218;51.408;7.208;2023-06-14T04:54:47;25.40;35.70
4411;DHT22;2218;51.408;7.208;2023-06-14T04:57:19;25.40;35.70
4411;DHT22;2218;51.408;7.208;2023-06-14T04:59:50;25.40;35.70
4411;DHT22;2218;51.408;7.208;2023-06-14T05:02:21;25.40;35.70
4411;DHT22;2218;51.408;7.208;2023-06-14T05:04:49;25.40;35.70
4411;DHT22;2218;51.408;7.208;2023-06-14T05:07:18;25.40;35.80
4411;DHT22;2218;51.408;7.208;2023-06-14T05:09:46;25.40;35.80
4411;DHT22;2218;51.408;7.208;2023-06-14T05:12:13;25.40;35.80
4411;DHT22;2218;51.408;7.208;2023-06-14T05:14:44;25.40;35.80
4411;DHT22;2218;51.408;7.208;2023-06-14T05:17:12;25.40;35.80
4411;DHT22;2218;51.408;7.208;2023-06-14T05:19:39;25.40;35.80
4411;DHT22;2218;51.408;7.208;2023-06-14T05:22:06;25.40;35.80
4411;DHT22;2218;51.408;7.208;2023-06-14T05:24:33;25.40;35.80
4411;DHT22;2218;51.408;7.208;2023-06-14T05:27:00;25.40;35.90
4411;DHT22;2218;51.408;7.208;2023-06-14T05:29:27;25.40;35.90
4411;DHT22;2218;51.408;7.208;2023-06-14T05:31:54;25.40;35.90
4411;DHT22;2218;51.408;7.208;2023-06-14T05:34:23;25.40;35.90
4411;DHT22;2218;51.408;7.208;2023-06-14T05:36:49;25.40;35.90
4411;DHT22;2218;51.408;7.208;2023-06-14T05:39:16;25.50;36.00
4411;DHT22;2218;51.408;7.208;2023-06-14T05:41:43;25.50;35.90
4411;DHT22;2218;51.408;7.208;2023-06-14T05:44:10;25.50;35.90
4411;DHT22;2218;51.408;7.208;2023-06-14T05:46:37;25.50;36.00
4411;DHT22;2218;51.408;7.208;2023-06-14T05:49:05;25.50;35.90
4411;DHT22;2218;51.408;7.208;2023-06-14T05:51:34;25.50;35.90
4411;DHT22;2218;51.408;7.208;2023-06-14T05:54:01;25.50;35.90
4411;DHT22;2218;51.408;7.208;2023-06-14T05:56:28;25.50;35.90
4411;DHT22;2218;51.408;7.208;2023-06-14T05:58:56;25.50;35.90
4411;DHT22;2218;51.408;7.208;2023-06-14T06:01:23;25.50;35.90
4411;DHT22;2218;51.408;7.208;2023-06-14T06:03:50;25.50;35.80
4411;DHT22;2218;51.408;7.208;2023-06-14T06:06:17;25.50;35.90
4411;DHT22;2218;51.408;7.208;2023-06-14T06:08:46;25.60;35.90
4411;DHT22;2218;51.408;7.208;2023-06-14T06:11:14;25.60;35.90
4411;DHT22;2218;51.408;7.208;2023-06-14T06:13:40;25.60;35.90
4411;DHT22;2218;51.408;7.208;2023-06-14T06:16:08;25.60;35.90
4411;DHT22;2218;51.408;7.208;2023-06-14T06:18:34;25.60;35.90
4411;DHT22;2218;51.408;7.208;2023-06-14T06:21:03;25.60;35.80
4411;DHT22;2218;51.408;7.208;2023-06-14T06:23:30;25.60;35.80
4411;DHT22;2218;51.408;7.208;2023-06-14T06:25:58;25.60;35.80
4411;DHT22;2218;51.408;7.208;2023-06-14T06:28:25;25.60;35.80
4411;DHT22;2218;51.408;7.208;2023-06-14T06:30:52;25.70;35.90
4411;DHT22;2218;51.408;7.208;2023-06-14T06:33:20;25.70;35.90
4411;DHT22;2218;51.408;7.208;2023-06-14T06:35:46;25.70;35.80
4411;DHT22;2218;51.408;7.208;2023-06-14T06:38:13;25.70;35.90
4411;DHT22;2218;51.408;7.208;2023-06-14T06:40:41;25.70;35.90
4411;DHT22;2218;51.408;7.208;2023-06-14T06:43:09;25.70;35.80
4411;DHT22;2218;51.408;7.208;2023-06-14T06:45:43;25.70;35.80
4411;DHT22;2218;51.408;7.208;2023-06-14T06:48:10;25.70;35.80
4411;DHT22;2218;51.408;7.208;2023-06-14T06:50:37;25.70;35.80
4411;DHT22;2218;51.408;7.208;2023-06-14T06:53:05;25.70;35.80
4411;DHT22;2218;51.408;7.208;2023-06-14T06:55:32;25.70;34.70
4411;DHT22;2218;51.408;7.208;2023-06-14T06:57:59;25.30;33.30
4411;DHT22;2218;51.408;7.208;2023-06-14T07:00:27;25.00;32.80
4411;DHT22;2218;51.408;7.208;2023-06-14T07:02:54;25.00;32.80
4411;DHT22;2218;51.408;7.208;2023-06-14T07:05:22;25.00;32.80
4411;DHT22;2218;51.408;7.208;2023-06-14T07:07:49;25.00;32.20
4411;DHT22;2218;51.408;7.208;2023-06-14T07:10:16;24.70;32.10
4411;DHT22;2218;51.408;7.208;2023-06-14T07:12:43;24.90;32.30
4411;DHT22;2218;51.408;7.208;2023-06-14T07:15:11;24.80;32.30
4411;DHT22;2218;51.408;7.208;2023-06-14T07:17:40;24.90;32.40
4411;DHT22;2218;51.408;7.208;2023-06-14T07:20:09;24.80;32.20
4411;DHT22;2218;51.408;7.208;2023-06-14T07:22:39;24.90;32.10
4411;DHT22;2218;51.408;7.208;2023-06-14T07:25:08;25.00;32.20
4411;DHT22;2218;51.408;7.208;2023-06-14T07:27:37;24.90;32.00
4411;DHT22;2218;51.408;7.208;2023-06-14T07:30:06;24.80;32.10
4411;DHT22;2218;51.408;7.208;2023-06-14T07:32:34;24.90;32.10
4411;DHT22;2218;51.408;7.208;2023-06-14T07:35:02;24.90;31.90
4411;DHT22;2218;51.408;7.208;2023-06-14T07:37:30;25.00;32.00
4411;DHT22;2218;51.408;7.208;2023-06-14T07:39:57;25.10;32.10
4411;DHT22;2218;51.408;7.208;2023-06-14T07:42:24;25.00;31.60
4411;DHT22;2218;51.408;7.208;2023-06-14T07:44:51;24.90;31.90
4411;DHT22;2218;51.408;7.208;2023-06-14T07:47:19;24.90;31.90
4411;DHT22;2218;51.408;7.208;2023-06-14T07:49:46;24.80;32.10
4411;DHT22;2218;51.408;7.208;2023-06-14T07:52:14;24.70;31.90
4411;DHT22;2218;51.408;7.208;2023-06-14T07:54:41;24.60;32.20
4411;DHT22;2218;51.408;7.208;2023-06-14T07:57:08;24.70;32.10
4411;DHT22;2218;51.408;7.208;2023-06-14T07:59:35;24.80;32.00
4411;DHT22;2218;51.408;7.208;2023-06-14T08:02:02;24.70;32.00
4411;DHT22;2218;51.408;7.208;2023-06-14T08:04:30;24.60;32.30
4411;DHT22;2218;51.408;7.208;2023-06-14T08:06:58;24.70;32.30
4411;DHT22;2218;51.408;7.208;2023-06-14T08:09:26;24.80;32.40
4411;DHT22;2218;51.408;7.208;2023-06-14T08:11:54;24.90;32.50
4411;DHT22;2218;51.408;7.208;2023-06-14T08:14:21;24.80;32.40
4411;DHT22;2218;51.408;7.208;2023-06-14T08:16:48;24.80;32.70
4411;DHT22;2218;51.408;7.208;2023-06-14T08:19:15;24.90;32.50
4411;DHT22;2218;51.408;7.208;2023-06-14T08:21:43;25.00;32.70
4411;DHT22;2218;51.408;7.208;2023-06-14T08:24:11;25.00;32.60
4411;DHT22;2218;51.408;7.208;2023-06-14T08:26:41;25.00;32.40
4411;DHT22;2218;51.408;7.208;2023-06-14T08:29:07;25.10;32.10
4411;DHT22;2218;51.408;7.208;2023-06-14T08:31:35;25.10;32.30
4411;DHT22;2218;51.408;7.208;2023-06-14T08:34:02;25.10;32.20
4411;DHT22;2218;51.408;7.208;2023-06-14T08:36:29;25.10;32.10
4411;DHT22;2218;51.408;7.208;2023-06-14T08:38:55;25.20;32.80
4411;DHT22;2218;51.408;7.208;2023-06-14T08:41:23;25.20;32.20
4411;DHT22;2218;51.408;7.208;2023-06-14T08:43:51;25.20;32.20
4411;DHT22;2218;51.408;7.208;2023-06-14T08:46:19;25.20;31.50
4411;DHT22;2218;51.408;7.208;2023-06-14T08:48:47;25.20;31.80
4411;DHT22;2218;51.408;7.208;2023-06-14T08:51:18;25.10;31.10
4411;DHT22;2218;51.408;7.208;2023-06-14T08:53:52;25.10;31.20
4411;DHT22;2218;51.408;7.208;2023-06-14T08:56:25;25.10;30.90
4411;DHT22;2218;51.408;7.208;2023-06-14T08:58:55;25.00;31.00
4411;DHT22;2218;51.408;7.208;2023-06-14T09:01:23;25.00;30.60
4411;DHT22;2218;51.408;7.208;2023-06-14T09:03:50;25.00;30.60
4411;DHT22;2218;51.408;7.208;2023-06-14T09:06:21;25.00;30.50
4411;DHT22;2218;51.408;7.208;2023-06-14T09:08:49;25.00;30.50
4411;DHT22;2218;51.408;7.208;2023-06-14T09:11:17;25.00;30.10
4411;DHT22;2218;51.408;7.208;2023-06-14T09:13:45;25.00;30.10
4411;DHT22;2218;51.408;7.208;2023-06-14T09:16:14;25.00;29.90
4411;DHT22;2218;51.408;7.208;2023-06-14T09:18:43;24.60;30.00
4411;DHT22;2218;51.408;7.208;2023-06-14T09:21:14;24.60;30.30
4411;DHT22;2218;51.408;7.208;2023-06-14T09:23:42;24.60;30.00
4411;DHT22;2218;51.408;7.208;2023-06-14T09:26:12;24.70;30.20
4411;DHT22;2218;51.408;7.208;2023-06-14T09:28:44;24.80;29.90
4411;DHT22;2218;51.408;7.208;2023-06-14T09:31:15;24.70;29.60
4411;DHT22;2218;51.408;7.208;2023-06-14T09:33:44;24.50;30.00
4411;DHT22;2218;51.408;7.208;2023-06-14T09:36:15;24.50;29.90
4411;DHT22;2218;51.408;7.208;2023-06-14T09:38:51;24.40;30.00
4411;DHT22;2218;51.408;7.208;2023-06-14T09:41:19;24.40;29.80
4411;DHT22;2218;51.408;7.208;2023-06-14T09:43:46;24.50;29.70
4411;DHT22;2218;51.408;7.208;2023-06-14T09:46:16;24.50;29.70
4411;DHT22;2218;51.408;7.208;2023-06-14T09:48:44;24.50;29.70
4411;DHT22;2218;51.408;7.208;2023-06-14T09:51:14;24.50;29.70
4411;DHT22;2218;51.408;7.208;2023-06-14T09:53:44;24.50;30.00
4411;DHT22;2218;51.408;7.208;2023-06-14T09:56:13;24.60;30.00
4411;DHT22;2218;51.408;7.208;2023-06-14T09:58:44;24.70;30.20
4411;DHT22;2218;51.408;7.208;2023-06-14T10:01:12;24.70;30.40
4411;DHT22;2218;51.408;7.208;2023-06-14T10:03:42;24.70;30.60
4411;DHT22;2218;51.408;7.208;2023-06-14T10:06:11;24.70;30.70
4411;DHT22;2218;51.408;7.208;2023-06-14T10:08:39;24.70;30.90
4411;DHT22;2218;51.408;7.208;2023-06-14T10:11:06;24.80;31.10
4411;DHT22;2218;51.408;7.208;2023-06-14T10:13:35;24.70;31.10
4411;DHT22;2218;51.408;7.208;2023-06-14T10:16:07;24.70;31.10
4411;DHT22;2218;51.408;7.208;2023-06-14T10:18:46;24.70;31.30
4411;DHT22;2218;51.408;7.208;2023-06-14T10:21:28;24.70;31.30
4411;DHT22;2218;51.408;7.208;2023-06-14T10:24:06;24.70;31.40
4411;DHT22;2218;51.408;7.208;2023-06-14T10:26:50;24.70;31.40
4411;DHT22;2218;51.408;7.208;2023-06-14T10:29:18;24.70;31.40
4411;DHT22;2218;51.408;7.208;2023-06-14T10:31:46;24.70;31.70
4411;DHT22;2218;51.408;7.208;2023-06-14T10:34:23;24.70;31.90
4411;DHT22;2218;51.408;7.208;2023-06-14T10:37:01;24.50;31.90
4411;DHT22;2218;51.408;7.208;2023-06-14T10:39:31;24.40;32.30
4411;DHT22;2218;51.408;7.208;2023-06-14T10:42:01;24.50;32.30
4411;DHT22;2218;51.408;7.208;2023-06-14T10:44:41;24.60;32.30
4411;DHT22;2218;51.408;7.208;2023-06-14T10:47:25;24.70;32.50
4411;DHT22;2218;51.408;7.208;2023-06-14T10:49:56;24.70;32.50
4411;DHT22;2218;51.408;7.208;2023-06-14T10:52:33;24.80;32.60
4411;DHT22;2218;51.408;7.208;2023-06-14T10:55:06;24.80;32.60
4411;DHT22;2218;51.408;7.208;2023-06-14T10:57:39;24.80;32.70
4411;DHT22;2218;51.408;7.208;2023-06-14T11:00:09;24.90;32.80
4411;DHT22;2218;51.408;7.208;2023-06-14T11:05:56;24.90;32.70
4411;DHT22;2218;51.408;7.208;2023-06-14T11:08:39;25.00;32.90
4411;DHT22;2218;51.408;7.208;2023-06-14T11:11:32;25.00;32.90
4411;DHT22;2218;51.408;7.208;2023-06-14T11:14:00;25.00;32.80
4411;DHT22;2218;51.408;7.208;2023-06-14T11:16:28;25.00;32.70
4411;DHT22;2218;51.408;7.208;2023-06-14T11:18:57;25.00;32.60
4411;DHT22;2218;51.408;7.208;2023-06-14T11:21:26;25.00;32.60
4411;DHT22;2218;51.408;7.208;2023-06-14T11:23:56;25.00;32.60
4411;DHT22;2218;51.408;7.208;2023-06-14T11:26:28;25.00;32.50
4411;DHT22;2218;51.408;7.208;2023-06-14T11:28:57;25.00;32.40
4411;DHT22;2218;51.408;7.208;2023-06-14T11:31:24;25.10;32.40
4411;DHT22;2218;51.408;7.208;2023-06-14T11:33:53;25.10;32.50
4411;DHT22;2218;51.408;7.208;2023-06-14T11:36:22;25.10;32.40
4411;DHT22;2218;51.408;7.208;2023-06-14T11:38:58;25.10;32.50
4411;DHT22;2218;51.408;7.208;2023-06-14T11:41:26;25.10;32.50
4411;DHT22;2218;51.408;7.208;2023-06-14T11:44:00;25.10;32.40
4411;DHT22;2218;51.408;7.208;2023-06-14T11:46:28;25.10;32.40
4411;DHT22;2218;51.408;7.208;2023-06-14T11:48:55;25.10;32.30
4411;DHT22;2218;51.408;7.208;2023-06-14T11:51:22;25.10;32.20
4411;DHT22;2218;51.408;7.208;2023-06-14T11:53:50;25.20;32.80
4411;DHT22;2218;51.408;7.208;2023-06-14T11:56:17;25.20;32.90
4411;DHT22;2218;51.408;7.208;2023-06-14T11:58:45;25.20;33.00
4411;DHT22;2218;51.408;7.208;2023-06-14T12:01:16;25.20;32.90
4411;DHT22;2218;51.408;7.208;2023-06-14T12:03:47;25.20;33.00
4411;DHT22;2218;51.408;7.208;2023-06-14T12:06:15;25.20;33.00
4411;DHT22;2218;51.408;7.208;2023-06-14T12:08:43;25.20;33.00
4411;DHT22;2218;51.408;7.208;2023-06-14T12:11:13;25.20;32.80
4411;DHT22;2218;51.408;7.208;2023-06-14T12:13:41;25.20;32.30
4411;DHT22;2218;51.408;7.208;2023-06-14T12:16:09;25.20;32.10
4411;DHT22;2218;51.408;7.208;2023-06-14T12:18:39;25.20;32.10
4411;DHT22;2218;51.408;7.208;2023-06-14T12:21:09;25.20;32.00
4411;DHT22;2218;51.408;7.208;2023-06-14T12:23:44;25.20;32.00
4411;DHT22;2218;51.408;7.208;2023-06-14T12:26:17;25.20;32.00
4411;DHT22;2218;51.408;7.208;2023-06-14T12:28:46;25.20;32.60
4411;DHT22;2218;51.408;7.208;2023-06-14T12:31:15;25.20;32.10
4411;DHT22;2218;51.408;7.208;2023-06-14T12:33:44;25.20;32.20
4411;DHT22;2218;51.408;7.208;2023-06-14T12:36:14;25.20;32.20
4411;DHT22;2218;51.408;7.208;2023-06-14T12:38:42;25.20;32.20
4411;DHT22;2218;51.408;7.208;2023-06-14T12:41:11;25.30;32.40
4411;DHT22;2218;51.408;7.208;2023-06-14T12:43:41;25.30;32.30
4411;DHT22;2218;51.408;7.208;2023-06-14T12:46:08;25.30;32.80
4411;DHT22;2218;51.408;7.208;2023-06-14T12:48:35;25.30;32.30
4411;DHT22;2218;51.408;7.208;2023-06-14T12:51:02;25.20;32.10
4411;DHT22;2218;51.408;7.208;2023-06-14T12:53:29;25.20;32.10
4411;DHT22;2218;51.408;7.208;2023-06-14T12:55:56;25.20;32.10
4411;DHT22;2218;51.408;7.208;2023-06-14T12:58:23;25.30;32.20
4411;DHT22;2218;51.408;7.208;2023-06-14T13:00:51;25.30;32.20
4411;DHT22;2218;51.408;7.208;2023-06-14T13:03:19;25.30;32.30
4411;DHT22;2218;51.408;7.208;2023-06-14T13:05:46;25.30;32.20
4411;DHT22;2218;51.408;7.208;2023-06-14T13:08:12;25.30;32.20
4411;DHT22;2218;51.408;7.208;2023-06-14T13:10:40;25.30;32.10
4411;DHT22;2218;51.408;7.208;2023-06-14T13:13:06;25.30;32.10
4411;DHT22;2218;51.408;7.208;2023-06-14T13:15:34;25.30;32.00
4411;DHT22;2218;51.408;7.208;2023-06-14T13:18:02;25.30;31.90
4411;DHT22;2218;51.408;7.208;2023-06-14T13:20:29;25.30;32.10
4411;DHT22;2218;51.408;7.208;2023-06-14T13:22:56;25.30;32.40
4411;DHT22;2218;51.408;7.208;2023-06-14T13:25:24;25.30;32.60
4411;DHT22;2218;51.408;7.208;2023-06-14T13:27:51;25.30;32.60
4411;DHT22;2218;51.408;7.208;2023-06-14T13:30:17;25.40;32.70
4411;DHT22;2218;51.408;7.208;2023-06-14T13:32:45;25.40;32.70
4411;DHT22;2218;51.408;7.208;2023-06-14T13:35:13;25.40;32.80
4411;DHT22;2218;51.408;7.208;2023-06-14T13:37:40;25.40;32.80
4411;DHT22;2218;51.408;7.208;2023-06-14T13:40:08;25.40;32.80
4411;DHT22;2218;51.408;7.208;2023-06-14T13:42:35;25.40;32.90
4411;DHT22;2218;51.408;7.208;2023-06-14T13:45:02;25.40;32.80
4411;DHT22;2218;51.408;7.208;2023-06-14T13:47:31;25.40;32.90
4411;DHT22;2218;51.408;7.208;2023-06-14T13:49:58;25.40;32.90
4411;DHT22;2218;51.408;7.208;2023-06-14T13:52:26;25.40;32.90
4411;DHT22;2218;51.408;7.208;2023-06-14T13:54:53;25.40;33.00
4411;DHT22;2218;51.408;7.208;2023-06-14T13:57:20;25.40;33.00
4411;DHT22;2218;51.408;7.208;2023-06-14T13:59:48;25.40;33.00
4411;DHT22;2218;51.408;7.208;2023-06-14T14:02:15;25.40;33.10
4411;DHT22;2218;51.408;7.208;2023-06-14T14:04:42;25.40;33.10
4411;DHT22;2218;51.408;7.208;2023-06-14T14:07:09;25.40;33.10
4411;DHT22;2218;51.408;7.208;2023-06-14T14:09:37;25.40;33.10
4411;DHT22;2218;51.408;7.208;2023-06-14T14:12:05;25.40;33.10
4411;DHT22;2218;51.408;7.208;2023-06-14T14:14:33;25.40;33.20
4411;DHT22;2218;51.408;7.208;2023-06-14T14:17:00;25.40;33.20
4411;DHT22;2218;51.408;7.208;2023-06-14T14:19:27;25.40;33.20
4411;DHT22;2218;51.408;7.208;2023-06-14T14:21:54;25.40;33.20
4411;DHT22;2218;51.408;7.208;2023-06-14T14:24:21;25.40;33.30
4411;DHT22;2218;51.408;7.208;2023-06-14T14:26:49;25.40;33.30
4411;DHT22;2218;51.408;7.208;2023-06-14T14:29:19;25.40;33.30
4411;DHT22;2218;51.408;7.208;2023-06-14T14:31:46;25.40;33.30
4411;DHT22;2218;51.408;7.208;2023-06-14T14:34:13;25.40;33.40
4411;DHT22;2218;51.408;7.208;2023-06-14T14:36:40;25.40;33.40
4411;DHT22;2218;51.408;7.208;2023-06-14T14:39:08;25.40;33.30
4411;DHT22;2218;51.408;7.208;2023-06-14T14:41:35;25.40;33.40
4411;DHT22;2218;51.408;7.208;2023-06-14T14:44:05;25.40;33.40
4411;DHT22;2218;51.408;7.208;2023-06-14T14:46:32;25.40;33.40
4411;DHT22;2218;51.408;7.208;2023-06-14T14:48:59;25.40;33.50
4411;DHT22;2218;51.408;7.208;2023-06-14T14:51:26;25.40;33.50
4411;DHT22;2218;51.408;7.208;2023-06-14T14:53:53;25.40;33.50
4411;DHT22;2218;51.408;7.208;2023-06-14T14:56:21;25.40;33.40
4411;DHT22;2218;51.408;7.208;2023-06-14T14:58:49;25.40;33.40
4411;DHT22;2218;51.408;7.208;2023-06-14T15:01:18;25.40;33.50
4411;DHT22;2218;51.408;7.208;2023-06-14T15:03:45;25.40;33.50
4411;DHT22;2218;51.408;7.208;2023-06-14T15:06:12;25.40;33.50
4411;DHT22;2218;51.408;7.208;2023-06-14T15:08:38;25.40;33.60
4411;DHT22;2218;51.408;7.208;2023-06-14T15:11:05;25.40;33.70
4411;DHT22;2218;51.408;7.208;2023-06-14T15:13:32;25.40;33.50
4411;DHT22;2218;51.408;7.208;2023-06-14T15:15:59;25.40;33.60
4411;DHT22;2218;51.408;7.208;2023-06-14T15:18:27;25.40;33.70
4411;DHT22;2218;51.408;7.208;2023-06-14T15:20:54;25.40;33.80
4411;DHT22;2218;51.408;7.208;2023-06-14T15:23:21;25.40;33.70
4411;DHT22;2218;51.408;7.208;2023-06-14T15:25:49;25.40;33.70
4411;DHT22;2218;51.408;7.208;2023-06-14T15:28:17;25.40;33.60
4411;DHT22;2218;51.408;7.208;2023-06-14T15:30:44;25.40;33.70
4411;DHT22;2218;51.408;7.208;2023-06-14T15:33:11;25.40;33.80
4411;DHT22;2218;51.408;7.208;2023-06-14T15:35:39;25.40;33.80
4411;DHT22;2218;51.408;7.208;2023-06-14T15:38:06;25.40;33.60
4411;DHT22;2218;51.408;7.208;2023-06-14T15:40:34;25.40;33.80
4411;DHT22;2218;51.408;7.208;2023-06-14T15:43:00;25.40;33.70
4411;DHT22;2218;51.408;7.208;2023-06-14T15:45:29;25.40;33.70
4411;DHT22;2218;51.408;7.208;2023-06-14T15:47:57;25.40;33.70
4411;DHT22;2218;51.408;7.208;2023-06-14T15:50:25;25.40;33.70
4411;DHT22;2218;51.408;7.208;2023-06-14T15:52:53;25.40;33.70
4411;DHT22;2218;51.408;7.208;2023-06-14T15:55:20;25.40;33.80
4411;DHT22;2218;51.408;7.208;2023-06-14T15:57:47;25.40;33.70
4411;DHT22;2218;51.408;7.208;2023-06-14T16:00:15;25.40;33.80
4411;DHT22;2218;51.408;7.208;2023-06-14T16:02:43;25.40;33.80
4411;DHT22;2218;51.408;7.208;2023-06-14T16:05:10;25.40;33.70
4411;DHT22;2218;51.408;7.208;2023-06-14T16:07:37;25.40;33.80
4411;DHT22;2218;51.408;7.208;2023-06-14T16:10:07;25.40;33.90
4411;DHT22;2218;51.408;7.208;2023-06-14T16:12:34;25.40;33.90
4411;DHT22;2218;51.408;7.208;2023-06-14T16:15:02;25.40;33.90